Sudlersville, Maryland
Current Conditions -  °F | °C
As of 11:58 PM on Wednesday 17 Dec 2014 (Local Time) from KDOV Reporting Station
Clear Clear  
Wind Chill: 30°   Ceiling: Unl
Heat Index: 37°   Visibility: 10mi
Dew Point: 25°   Wind: 9mph
Humidity: 61%   Direction: 270°W
Pressure: 29.99"   Gusts: NA
Location:  39.19°N, 75.86°W
Report Text: KDOV 180458Z AUTO 27008KT 10SM CLR 03/M04 A2999 RMK AO2 SLP159 T00271041 401230027
Loading
Personal Weather Stations






























Interactive Weather Map New forecast layout! Learn more

10-Day Weather Forecast

Advertisements
Track Severe Weather on mobile